Portada
METAR-TAF:

METAR-TAF

Aeroports :

Phetchabun, Tailàndia

latitud: 16-40-33N, longitud: 101-11-42E, altitud: 137 m

Observació

L'informe es va fer fa 34 minuts, a les 04:00 UTC
Vent 4 kt del Nord/Nord-Est
Temperatura 29°C
Humitat 52%
Pressió 1016 hPa
Visibilitat 10 km o més
Escasses núvols a una alçada de 2000 ft

METAR: VTPB 210400Z 03004KT 9999 FEW020 29/18 Q1016 NOSIG

Hora: 11:34 (04:34 UTC)

Pronòstic

L'informe es va fer fa 5 hores i 34 minuts, a les 23:00 UTC
Pronòstic vàlid del 21 a les 00 UTC al 21 a les 24 UTC
Vent 5 kt del Nord-Est
Visibilitat 10 km o més
Escasses núvols a una alçada de 2000 ft

TAF: VTPB 202300Z 2100/2124 04005KT 9999 FEW020

Observacions i pronòstics meteorològics de més de 4000 aeroports (METAR i TAF).

Les estacions disponibles són els punts grocs i vermells al mapa.

Posi el ratolí al punt desitjat per veure el nom de l'estació.

Feu clic per veure les observacions i els pronòstics meteorològics.

Per canviar el mapa: feu clic els botons verds amb una creu de color negre per apropar; al botó verd amb un guió per allunyar la imatge; o en les fletxes verdes per a mapes adjacents.


METAR-TAF: